createdAt,value
2023-05-16T00:01:05.346Z,15.80
2023-05-16T00:03:52.841Z,14.05
2023-05-16T00:06:38.973Z,16.15
2023-05-16T00:09:45.075Z,15.83
2023-05-16T00:18:31.888Z,13.02
2023-05-16T00:21:20.012Z,15.48
2023-05-16T00:24:08.841Z,14.75
2023-05-16T00:27:01.088Z,14.63
2023-05-16T00:29:54.162Z,15.68
2023-05-16T00:32:46.993Z,16.75
2023-05-16T00:38:53.657Z,18.42
2023-05-16T00:41:46.318Z,17.42
2023-05-16T00:47:55.635Z,13.63
2023-05-16T00:50:48.103Z,15.60
2023-05-16T00:53:41.148Z,13.75
2023-05-16T00:56:35.613Z,15.18
2023-05-16T00:59:28.262Z,14.40
2023-05-16T01:02:22.199Z,13.20
2023-05-16T01:05:15.284Z,10.27
2023-05-16T01:08:08.046Z,12.15
2023-05-16T01:11:40.251Z,10.05
2023-05-16T01:14:40.173Z,12.48
2023-05-16T01:17:39.492Z,9.13
2023-05-16T01:20:37.033Z,7.53
2023-05-16T01:26:47.756Z,5.40
2023-05-16T01:29:40.121Z,7.30
2023-05-16T01:32:32.763Z,9.80
2023-05-16T01:35:25.344Z,7.00
2023-05-16T01:38:34.124Z,7.25
2023-05-16T01:41:27.614Z,7.97
2023-05-16T01:44:24.966Z,6.80
2023-05-16T01:47:18.977Z,8.07
2023-05-16T01:50:16.383Z,7.72
2023-05-16T01:53:11.224Z,5.78
2023-05-16T01:56:05.182Z,5.03
2023-05-16T01:58:58.175Z,5.47
2023-05-16T02:01:54.442Z,8.10
2023-05-16T02:07:49.627Z,4.28
2023-05-16T02:13:54.336Z,3.35
2023-05-16T02:16:46.895Z,8.02
2023-05-16T02:19:41.273Z,5.95
2023-05-16T02:22:34.451Z,6.60
2023-05-16T02:25:27.302Z,4.53
2023-05-16T02:28:20.378Z,6.47
2023-05-16T02:31:13.167Z,8.55
2023-05-16T02:34:07.156Z,5.63
2023-05-16T02:37:01.285Z,7.30
2023-05-16T02:39:53.667Z,6.38
2023-05-16T02:42:46.020Z,7.03
2023-05-16T02:48:52.528Z,4.55
2023-05-16T02:51:45.128Z,7.35
2023-05-16T02:54:51.941Z,6.88
2023-05-16T02:57:53.128Z,7.70
2023-05-16T03:00:46.060Z,6.72
2023-05-16T03:03:38.785Z,7.45
2023-05-16T03:06:31.505Z,7.60
2023-05-16T03:09:25.990Z,9.47
2023-05-16T03:12:20.489Z,6.93
2023-05-16T03:15:12.887Z,7.60
2023-05-16T03:18:23.443Z,5.80
2023-05-16T03:21:13.310Z,11.98
2023-05-16T03:24:06.659Z,7.85
2023-05-16T03:26:59.860Z,8.30
2023-05-16T03:29:53.480Z,7.15
2023-05-16T03:32:53.559Z,15.48
2023-05-16T03:38:58.353Z,6.93
2023-05-16T03:45:09.821Z,5.47
2023-05-16T03:48:02.347Z,9.30
2023-05-16T03:50:55.589Z,10.23
2023-05-16T03:57:04.829Z,7.03
2023-05-16T04:03:11.372Z,14.45
2023-05-16T04:09:20.445Z,4.40
2023-05-16T04:15:25.510Z,10.85
2023-05-16T04:18:19.296Z,11.52
2023-05-16T04:21:18.150Z,13.75
2023-05-16T04:24:11.095Z,11.57
2023-05-16T04:27:04.754Z,9.65
2023-05-16T04:29:57.302Z,6.55
2023-05-16T04:35:58.384Z,7.65
2023-05-16T04:38:51.405Z,11.02
2023-05-16T04:41:43.925Z,14.50
2023-05-16T04:44:52.624Z,12.63
2023-05-16T04:47:44.269Z,14.75
2023-05-16T04:53:45.226Z,11.60
2023-05-16T04:56:38.154Z,10.52
2023-05-16T04:59:56.148Z,10.40
2023-05-16T05:02:49.257Z,9.48
2023-05-16T05:05:59.411Z,11.70
2023-05-16T05:08:50.321Z,17.02
2023-05-16T05:11:42.814Z,10.15
2023-05-16T05:17:45.967Z,16.77
2023-05-16T05:23:57.244Z,13.45
2023-05-16T05:30:01.403Z,15.95
2023-05-16T05:36:06.828Z,14.52
2023-05-16T05:39:00.808Z,12.45
2023-05-16T05:41:59.571Z,13.88
2023-05-16T05:44:52.136Z,17.25
2023-05-16T05:47:45.286Z,9.65
2023-05-16T05:50:37.999Z,11.90
2023-05-16T05:53:31.142Z,12.65
2023-05-16T05:56:29.241Z,12.23
2023-05-16T05:59:21.698Z,12.95
2023-05-16T06:05:35.408Z,10.88
2023-05-16T06:08:27.946Z,11.27
2023-05-16T06:11:21.454Z,15.85
2023-05-16T06:14:16.124Z,9.40
2023-05-16T06:17:09.233Z,12.63
2023-05-16T06:20:02.100Z,11.75
2023-05-16T06:22:55.018Z,16.33
2023-05-16T06:25:51.991Z,13.38
2023-05-16T06:28:45.042Z,11.07
2023-05-16T06:31:39.400Z,9.77
2023-05-16T06:37:42.956Z,18.58
2023-05-16T06:40:36.394Z,14.38
2023-05-16T06:43:29.186Z,9.38
2023-05-16T06:46:23.076Z,16.20
2023-05-16T06:49:17.562Z,10.32
2023-05-16T06:52:10.370Z,11.48
2023-05-16T06:55:05.755Z,12.65
2023-05-16T06:57:58.170Z,20.13
2023-05-16T07:00:51.517Z,20.77
2023-05-16T07:03:43.845Z,8.43
2023-05-16T07:06:38.562Z,16.52
2023-05-16T07:09:31.210Z,9.52
2023-05-16T07:12:23.764Z,9.48
2023-05-16T07:15:16.250Z,11.30
2023-05-16T07:18:09.075Z,15.38
2023-05-16T07:21:02.321Z,7.10
2023-05-16T07:23:56.369Z,11.63
2023-05-16T07:26:49.759Z,9.32
2023-05-16T07:33:11.436Z,5.72
2023-05-16T07:36:41.492Z,12.85
2023-05-16T07:39:35.407Z,9.35
2023-05-16T07:43:05.313Z,11.77
2023-05-16T07:45:58.235Z,10.68
2023-05-16T07:48:51.397Z,14.98
2023-05-16T07:51:43.890Z,11.57
2023-05-16T07:54:37.591Z,8.35
2023-05-16T07:57:30.204Z,14.13
2023-05-16T08:00:24.220Z,8.38
2023-05-16T08:03:16.945Z,13.85
2023-05-16T08:09:31.308Z,6.30
2023-05-16T08:16:11.698Z,8.50
2023-05-16T08:19:04.137Z,12.63
2023-05-16T08:21:57.409Z,7.70
2023-05-16T08:24:49.815Z,5.72
2023-05-16T08:27:42.892Z,10.10
2023-05-16T08:30:35.257Z,7.32
2023-05-16T08:33:29.439Z,9.05
2023-05-16T08:40:11.019Z,7.15
2023-05-16T08:43:29.337Z,5.90
2023-05-16T08:46:24.100Z,7.90
2023-05-16T08:49:34.471Z,9.40
2023-05-16T08:52:28.717Z,6.63
2023-05-16T08:58:42.345Z,9.40
2023-05-16T09:04:39.955Z,5.40
2023-05-16T09:10:50.859Z,5.80
2023-05-16T09:13:44.607Z,10.60
2023-05-16T09:16:37.656Z,12.20
2023-05-16T09:19:34.639Z,7.07
2023-05-16T09:22:27.532Z,5.07
2023-05-16T09:28:34.933Z,5.25
2023-05-16T09:40:53.496Z,9.10
2023-05-16T09:43:47.636Z,6.88
2023-05-16T09:46:40.039Z,8.43
2023-05-16T09:49:33.153Z,5.25
2023-05-16T09:52:28.038Z,8.23
2023-05-16T09:55:21.175Z,6.93
2023-05-16T09:58:17.955Z,8.63
2023-05-16T10:01:12.999Z,5.63
2023-05-16T10:04:06.714Z,6.43
2023-05-16T10:07:01.710Z,7.72
2023-05-16T10:09:55.332Z,6.63
2023-05-16T10:12:48.600Z,5.47
2023-05-16T10:15:41.216Z,5.05
2023-05-16T10:22:00.397Z,6.57
2023-05-16T10:24:58.982Z,4.00
2023-05-16T10:27:52.394Z,6.30
2023-05-16T10:30:46.588Z,4.95
2023-05-16T10:33:32.827Z,6.43
2023-05-16T10:36:18.834Z,5.50
2023-05-16T10:39:06.651Z,5.38
2023-05-16T10:41:52.756Z,7.95
2023-05-16T10:44:40.474Z,7.47
2023-05-16T10:47:27.984Z,7.05
2023-05-16T10:50:14.179Z,8.73
2023-05-16T10:53:13.619Z,2.90
2023-05-16T10:56:09.863Z,3.75
2023-05-16T10:58:56.706Z,6.20
2023-05-16T11:01:42.703Z,3.08
2023-05-16T11:04:46.406Z,7.43
2023-05-16T11:07:34.468Z,7.22
2023-05-16T11:10:27.362Z,3.93
2023-05-16T11:13:25.581Z,5.55
2023-05-16T11:16:28.093Z,3.92
2023-05-16T11:19:32.680Z,4.00
2023-05-16T11:22:26.800Z,5.47
2023-05-16T11:25:39.199Z,4.22
2023-05-16T11:28:33.659Z,12.23
2023-05-16T11:31:26.451Z,8.45
2023-05-16T11:34:19.439Z,6.20
2023-05-16T11:40:37.265Z,6.05
2023-05-16T11:46:41.912Z,4.50
2023-05-16T11:52:53.399Z,7.05
2023-05-16T11:58:59.326Z,10.95
2023-05-16T12:01:53.537Z,6.18
2023-05-16T12:04:47.835Z,9.13
2023-05-16T12:07:41.814Z,5.50
2023-05-16T12:10:35.050Z,7.30
2023-05-16T12:13:28.744Z,3.92
2023-05-16T12:16:21.417Z,7.93
2023-05-16T12:19:16.096Z,7.82
2023-05-16T12:22:17.219Z,5.80
2023-05-16T12:25:22.838Z,7.15
2023-05-16T12:28:15.834Z,3.17
2023-05-16T12:31:29.360Z,5.38
2023-05-16T12:34:29.846Z,8.15
2023-05-16T12:37:22.380Z,6.38
2023-05-16T12:40:15.074Z,3.30
2023-05-16T12:43:14.529Z,3.67
2023-05-16T12:46:11.440Z,5.38
2023-05-16T12:49:05.703Z,5.35
2023-05-16T12:52:05.608Z,4.78
2023-05-16T12:54:58.496Z,5.72
2023-05-16T13:01:03.677Z,7.45
2023-05-16T13:03:56.081Z,4.40
2023-05-16T13:09:49.323Z,5.22
2023-05-16T13:12:42.577Z,6.07
2023-05-16T13:15:34.972Z,3.10
2023-05-16T13:18:28.112Z,5.50
2023-05-16T13:21:22.412Z,5.35
2023-05-16T13:24:15.278Z,4.22
2023-05-16T13:27:09.689Z,6.70
2023-05-16T13:30:08.755Z,7.07
2023-05-16T13:33:01.441Z,9.35
2023-05-16T13:35:55.271Z,3.20
2023-05-16T13:38:48.498Z,3.78
2023-05-16T13:41:42.129Z,10.15
2023-05-16T13:44:36.713Z,4.63
2023-05-16T13:47:29.525Z,4.45
2023-05-16T13:50:22.343Z,7.63
2023-05-16T13:53:15.215Z,3.60
2023-05-16T13:56:08.187Z,8.50
2023-05-16T13:59:05.850Z,3.78
2023-05-16T14:02:01.447Z,3.65
2023-05-16T14:04:54.121Z,6.00
2023-05-16T14:07:47.296Z,3.95
2023-05-16T14:10:40.361Z,4.50
2023-05-16T14:13:33.319Z,2.70
2023-05-16T14:16:26.376Z,4.30
2023-05-16T14:22:32.838Z,5.85
2023-05-16T14:25:25.437Z,5.97
2023-05-16T14:28:18.070Z,3.53
2023-05-16T14:31:11.468Z,5.53
2023-05-16T14:34:04.172Z,3.75
2023-05-16T14:36:57.663Z,4.07
2023-05-16T14:39:52.854Z,7.72
2023-05-16T14:42:45.080Z,3.17
2023-05-16T14:45:39.197Z,7.20
2023-05-16T14:48:33.104Z,8.10
2023-05-16T14:51:26.253Z,4.60
2023-05-16T14:54:19.459Z,7.45
2023-05-16T14:57:52.513Z,6.90
2023-05-16T15:00:53.410Z,5.97
2023-05-16T15:04:11.563Z,6.25
2023-05-16T15:07:05.074Z,4.15
2023-05-16T15:10:12.424Z,9.80
2023-05-16T15:13:04.789Z,4.00
2023-05-16T15:19:19.674Z,10.57
2023-05-16T15:25:17.055Z,4.05
2023-05-16T15:28:10.614Z,6.95
2023-05-16T15:31:04.548Z,9.40
2023-05-16T15:33:57.182Z,3.80
2023-05-16T15:36:52.290Z,2.72
2023-05-16T15:39:45.324Z,2.38
2023-05-16T15:42:38.378Z,7.82
2023-05-16T15:45:42.699Z,5.68
2023-05-16T15:48:35.407Z,6.78
2023-05-16T15:51:28.325Z,5.88
2023-05-16T15:54:22.469Z,4.50
2023-05-16T15:57:14.968Z,4.15
2023-05-16T16:00:08.819Z,6.97
2023-05-16T16:03:03.940Z,7.13
2023-05-16T16:09:18.294Z,3.85
2023-05-16T16:15:19.675Z,3.95
2023-05-16T16:18:13.777Z,2.85
2023-05-16T16:21:07.212Z,6.00
2023-05-16T16:24:00.491Z,5.65
2023-05-16T16:26:53.256Z,5.72
2023-05-16T16:29:46.573Z,4.95
2023-05-16T16:32:40.475Z,5.00
2023-05-16T16:35:34.253Z,7.00
2023-05-16T16:38:27.241Z,4.38
2023-05-16T16:41:20.035Z,6.82
2023-05-16T16:44:13.832Z,4.80
2023-05-16T16:47:06.553Z,4.15
2023-05-16T16:50:01.176Z,4.88
2023-05-16T16:52:54.854Z,2.92
2023-05-16T16:55:47.265Z,5.95
2023-05-16T16:58:40.192Z,5.95
2023-05-16T17:04:49.525Z,3.95
2023-05-16T17:07:44.042Z,5.40
2023-05-16T17:11:05.050Z,5.65
2023-05-16T17:13:59.579Z,9.60
2023-05-16T17:20:10.055Z,7.65
2023-05-16T17:23:04.656Z,5.28
2023-05-16T17:25:57.432Z,8.07
2023-05-16T17:28:50.389Z,7.72
2023-05-16T17:31:43.014Z,7.25
2023-05-16T17:34:36.453Z,4.68
2023-05-16T17:37:29.381Z,3.95
2023-05-16T17:40:23.998Z,6.45
2023-05-16T17:43:17.060Z,6.45
2023-05-16T17:46:09.945Z,6.05
2023-05-16T17:49:27.582Z,8.90
2023-05-16T17:52:22.014Z,7.05
2023-05-16T17:55:28.480Z,6.30
2023-05-16T17:58:22.246Z,8.00
2023-05-16T18:01:15.165Z,3.47
2023-05-16T18:04:08.903Z,8.95
2023-05-16T18:07:02.246Z,6.80
2023-05-16T18:09:55.501Z,8.40
2023-05-16T18:12:48.297Z,7.60
2023-05-16T18:15:42.605Z,4.20
2023-05-16T18:18:37.401Z,6.13
2023-05-16T18:21:30.337Z,12.10
2023-05-16T18:24:23.253Z,9.00
2023-05-16T18:27:16.157Z,6.55
2023-05-16T18:30:10.607Z,7.95
2023-05-16T18:33:06.366Z,10.63
2023-05-16T18:35:59.068Z,6.03
2023-05-16T18:38:52.895Z,8.05
2023-05-16T18:44:58.526Z,6.38
2023-05-16T18:51:05.718Z,6.57
2023-05-16T18:57:11.308Z,9.80
2023-05-16T19:00:05.610Z,5.78
2023-05-16T19:02:58.233Z,4.63
2023-05-16T19:05:51.549Z,7.30
2023-05-16T19:08:47.959Z,8.85
2023-05-16T19:15:18.587Z,5.93
2023-05-16T19:18:49.576Z,6.65
2023-05-16T19:21:42.393Z,5.90
2023-05-16T19:24:36.550Z,5.38
2023-05-16T19:27:29.355Z,4.82
2023-05-16T19:30:23.361Z,9.20
2023-05-16T19:33:16.515Z,5.93
2023-05-16T19:36:09.742Z,8.25
2023-05-16T19:39:02.291Z,3.72
2023-05-16T19:41:57.053Z,5.38
2023-05-16T19:44:50.103Z,8.97
2023-05-16T19:47:43.851Z,7.03
2023-05-16T19:50:37.523Z,3.58
2023-05-16T19:53:30.689Z,2.78
2023-05-16T19:56:23.066Z,6.00
2023-05-16T19:59:17.773Z,5.57
2023-05-16T20:02:10.465Z,4.57
2023-05-16T20:05:04.347Z,12.48
2023-05-16T20:07:57.423Z,7.55
2023-05-16T20:10:49.879Z,5.93
2023-05-16T20:13:42.338Z,5.60
2023-05-16T20:20:08.308Z,3.03
2023-05-16T20:23:33.390Z,4.65
2023-05-16T20:26:26.443Z,5.40
2023-05-16T20:29:35.421Z,5.05
2023-05-16T20:32:26.535Z,3.80
2023-05-16T20:39:08.837Z,7.43
2023-05-16T20:42:01.428Z,6.38
2023-05-16T20:44:54.357Z,4.65
2023-05-16T20:47:48.290Z,3.47
2023-05-16T20:50:41.195Z,3.50
2023-05-16T20:53:34.404Z,7.20
2023-05-16T20:57:04.458Z,3.55
2023-05-16T20:59:58.804Z,4.22
2023-05-16T21:03:19.502Z,3.20
2023-05-16T21:06:12.333Z,3.17
2023-05-16T21:09:05.896Z,4.78
2023-05-16T21:15:19.881Z,9.25
2023-05-16T21:21:35.604Z,9.05
2023-05-16T21:27:53.488Z,9.93
2023-05-16T21:33:56.401Z,3.67
2023-05-16T21:39:51.543Z,5.22
2023-05-16T21:45:56.556Z,7.10
2023-05-16T21:48:49.094Z,7.05
2023-05-16T21:51:47.421Z,5.88
2023-05-16T21:54:40.549Z,5.10
2023-05-16T21:57:33.310Z,9.65
2023-05-16T22:00:26.446Z,4.57
2023-05-16T22:03:21.058Z,8.48
2023-05-16T22:06:14.205Z,4.97
2023-05-16T22:09:08.686Z,5.97
2023-05-16T22:12:01.342Z,5.40
2023-05-16T22:14:54.378Z,4.15
2023-05-16T22:18:12.454Z,5.77
2023-05-16T22:21:06.129Z,10.40
2023-05-16T22:23:59.270Z,3.47
2023-05-16T22:26:53.542Z,3.70
2023-05-16T22:29:46.241Z,7.65
2023-05-16T22:32:39.558Z,2.72
2023-05-16T22:35:43.517Z,5.20
2023-05-16T22:38:36.366Z,5.70
2023-05-16T22:41:29.601Z,8.80
2023-05-16T22:47:29.122Z,3.88
2023-05-16T22:53:34.640Z,8.88
2023-05-16T22:59:43.749Z,3.50
2023-05-16T23:02:37.412Z,6.03
2023-05-16T23:05:30.403Z,5.57
2023-05-16T23:08:23.479Z,7.43
2023-05-16T23:11:41.334Z,4.60
2023-05-16T23:14:34.301Z,4.38
2023-05-16T23:18:04.586Z,6.97
2023-05-16T23:20:58.436Z,4.05
2023-05-16T23:24:04.299Z,5.37
2023-05-16T23:26:57.202Z,5.28
2023-05-16T23:33:36.276Z,5.80
2023-05-16T23:39:39.888Z,5.20
2023-05-16T23:42:26.217Z,5.35
2023-05-16T23:45:12.678Z,8.75
2023-05-16T23:47:59.190Z,6.43
2023-05-16T23:50:45.463Z,5.63
2023-05-16T23:53:32.960Z,5.28
2023-05-16T23:56:20.645Z,13.90
2023-05-16T23:59:06.573Z,10.68
